createdAt,value
2018-12-19T00:01:23.624Z,7.20
2018-12-19T00:03:51.764Z,8.43
2018-12-19T00:06:19.942Z,10.60
2018-12-19T00:08:48.357Z,12.23
2018-12-19T00:11:16.500Z,9.77
2018-12-19T00:13:44.675Z,16.03
2018-12-19T00:16:12.804Z,8.83
2018-12-19T00:18:40.940Z,12.33
2018-12-19T00:21:09.217Z,10.35
2018-12-19T00:23:38.390Z,12.00
2018-12-19T00:26:06.521Z,9.90
2018-12-19T00:28:34.736Z,10.20
2018-12-19T00:31:02.878Z,10.57
2018-12-19T00:33:31.089Z,8.10
2018-12-19T00:35:59.241Z,9.17
2018-12-19T00:38:27.373Z,6.93
2018-12-19T00:40:55.542Z,9.13
2018-12-19T00:43:23.725Z,9.10
2018-12-19T00:45:51.858Z,8.67
2018-12-19T00:48:20.238Z,10.83
2018-12-19T00:50:48.371Z,9.57
2018-12-19T00:53:16.515Z,9.43
2018-12-19T00:55:44.644Z,10.45
2018-12-19T00:58:12.946Z,11.97
2018-12-19T01:00:41.082Z,11.43
2018-12-19T01:03:09.214Z,8.53
2018-12-19T01:05:37.380Z,8.10
2018-12-19T01:08:05.573Z,11.83
2018-12-19T01:10:33.694Z,9.83
2018-12-19T01:13:01.817Z,9.23
2018-12-19T01:15:30.042Z,12.13
2018-12-19T01:17:58.169Z,11.40
2018-12-19T01:20:26.307Z,11.73
2018-12-19T01:22:54.481Z,12.33
2018-12-19T01:25:22.898Z,11.77
2018-12-19T01:27:51.054Z,9.53
2018-12-19T01:30:19.264Z,10.83
2018-12-19T01:32:47.387Z,8.00
2018-12-19T01:35:15.537Z,11.17
2018-12-19T01:37:43.781Z,11.20
2018-12-19T01:40:11.932Z,8.50
2018-12-19T01:42:40.183Z,7.33
2018-12-19T01:45:08.467Z,6.37
2018-12-19T01:47:36.641Z,9.53
2018-12-19T01:50:05.177Z,11.10
2018-12-19T01:52:33.324Z,9.47
2018-12-19T01:55:01.468Z,6.30
2018-12-19T01:57:29.610Z,7.15
2018-12-19T01:59:57.742Z,10.60
2018-12-19T02:02:25.870Z,8.55
2018-12-19T02:04:54.041Z,10.95
2018-12-19T02:07:22.217Z,5.53
2018-12-19T02:09:50.378Z,7.10
2018-12-19T02:12:18.597Z,7.30
2018-12-19T02:14:46.813Z,7.43
2018-12-19T02:17:14.916Z,8.73
2018-12-19T02:19:43.126Z,7.93
2018-12-19T02:22:11.246Z,12.13
2018-12-19T02:24:39.384Z,8.80
2018-12-19T02:27:07.598Z,10.13
2018-12-19T02:29:35.809Z,14.43
2018-12-19T02:32:08.164Z,6.50
2018-12-19T02:34:36.501Z,9.83
2018-12-19T02:37:04.610Z,6.87
2018-12-19T02:39:36.080Z,8.40
2018-12-19T02:42:02.852Z,5.65
2018-12-19T02:44:30.979Z,8.83
2018-12-19T02:46:59.453Z,7.40
2018-12-19T02:49:27.635Z,7.25
2018-12-19T02:51:55.772Z,6.20
2018-12-19T02:54:24.090Z,10.90
2018-12-19T02:56:52.222Z,9.30
2018-12-19T02:59:20.359Z,3.95
2018-12-19T03:01:48.537Z,6.05
2018-12-19T03:04:16.692Z,5.90
2018-12-19T03:06:45.113Z,7.80
2018-12-19T03:09:13.985Z,6.62
2018-12-19T03:11:42.181Z,7.73
2018-12-19T03:14:10.315Z,7.00
2018-12-19T03:16:38.434Z,5.57
2018-12-19T03:19:06.654Z,7.27
2018-12-19T03:21:34.786Z,6.63
2018-12-19T03:24:02.945Z,8.67
2018-12-19T03:26:31.074Z,8.90
2018-12-19T03:28:59.346Z,7.17
2018-12-19T03:31:27.576Z,6.67
2018-12-19T03:33:55.830Z,5.13
2018-12-19T03:36:24.133Z,13.17
2018-12-19T03:38:52.255Z,7.70
2018-12-19T03:41:20.458Z,12.00
2018-12-19T03:43:48.591Z,10.83
2018-12-19T03:46:16.744Z,11.70
2018-12-19T03:48:50.439Z,6.62
2018-12-19T03:51:18.895Z,8.93
2018-12-19T03:53:47.023Z,5.63
2018-12-19T03:56:15.539Z,9.30
2018-12-19T03:58:43.965Z,7.00
2018-12-19T04:01:12.094Z,10.47
2018-12-19T04:03:40.235Z,8.07
2018-12-19T04:06:08.389Z,7.17
2018-12-19T04:08:36.520Z,11.97
2018-12-19T04:11:04.745Z,10.63
2018-12-19T04:13:32.952Z,6.27
2018-12-19T04:16:01.085Z,8.67
2018-12-19T04:18:29.297Z,9.13
2018-12-19T04:20:57.576Z,10.23
2018-12-19T04:23:25.753Z,7.53
2018-12-19T04:25:53.986Z,14.50
2018-12-19T04:28:22.101Z,9.08
2018-12-19T04:30:50.241Z,9.15
2018-12-19T04:33:18.385Z,7.63
2018-12-19T04:35:46.892Z,7.50
2018-12-19T04:38:15.402Z,6.90
2018-12-19T04:40:43.640Z,8.45
2018-12-19T04:43:11.919Z,10.80
2018-12-19T04:45:40.059Z,7.93
2018-12-19T04:48:08.234Z,10.80
2018-12-19T04:50:36.434Z,9.43
2018-12-19T04:53:04.600Z,12.33
2018-12-19T04:55:32.746Z,8.40
2018-12-19T04:58:00.874Z,6.50
2018-12-19T05:00:29.070Z,8.77
2018-12-19T05:02:57.202Z,6.83
2018-12-19T05:05:25.362Z,8.75
2018-12-19T05:07:53.876Z,8.50
2018-12-19T05:10:22.035Z,12.90
2018-12-19T05:12:50.192Z,7.50
2018-12-19T05:15:18.426Z,10.20
2018-12-19T05:17:46.536Z,8.40
2018-12-19T05:20:14.669Z,9.70
2018-12-19T05:22:42.798Z,8.03
2018-12-19T05:25:12.990Z,12.43
2018-12-19T05:27:41.115Z,11.33
2018-12-19T05:30:09.581Z,12.53
2018-12-19T05:32:37.754Z,7.67
2018-12-19T05:35:06.568Z,11.93
2018-12-19T05:37:34.773Z,7.73
2018-12-19T05:40:02.994Z,8.57
2018-12-19T05:42:31.144Z,12.30
2018-12-19T05:44:59.320Z,9.60
2018-12-19T05:47:27.890Z,10.70
2018-12-19T05:49:56.609Z,17.07
2018-12-19T05:52:26.437Z,12.90
2018-12-19T05:54:54.894Z,12.20
2018-12-19T05:57:23.317Z,11.20
2018-12-19T05:59:51.464Z,8.15
2018-12-19T06:02:19.758Z,10.73
2018-12-19T06:04:47.932Z,13.50
2018-12-19T06:07:16.135Z,15.23
2018-12-19T06:09:44.259Z,12.10
2018-12-19T06:12:12.414Z,10.80
2018-12-19T06:14:40.630Z,14.67
2018-12-19T06:17:08.785Z,9.67
2018-12-19T06:19:36.931Z,12.93
2018-12-19T06:22:05.102Z,14.18
2018-12-19T06:24:33.226Z,15.13
2018-12-19T06:27:01.383Z,15.27
2018-12-19T06:29:29.520Z,10.50
2018-12-19T06:31:57.636Z,9.73
2018-12-19T06:34:25.761Z,7.83
2018-12-19T06:36:53.935Z,13.60
2018-12-19T06:39:22.154Z,10.17
2018-12-19T06:41:50.947Z,11.88
2018-12-19T06:44:19.107Z,12.20
2018-12-19T06:46:47.209Z,14.73
2018-12-19T06:49:15.345Z,13.67
2018-12-19T06:51:43.493Z,12.30
2018-12-19T06:54:11.772Z,11.40
2018-12-19T06:56:39.900Z,13.23
2018-12-19T06:59:08.042Z,10.70
2018-12-19T07:01:36.161Z,14.90
2018-12-19T07:04:04.511Z,12.97
2018-12-19T07:06:32.650Z,10.80
2018-12-19T07:09:01.580Z,9.47
2018-12-19T07:11:29.954Z,23.50
2018-12-19T07:13:58.086Z,15.00
2018-12-19T07:16:26.225Z,15.38
2018-12-19T07:18:54.364Z,17.87
2018-12-19T07:21:22.513Z,15.13
2018-12-19T07:23:50.806Z,12.53
2018-12-19T07:26:19.067Z,18.60
2018-12-19T07:28:47.199Z,12.77
2018-12-19T07:31:15.459Z,19.47
2018-12-19T07:33:43.839Z,12.53
2018-12-19T07:36:11.990Z,13.57
2018-12-19T07:38:40.209Z,10.30
2018-12-19T07:41:08.349Z,11.40
2018-12-19T07:43:36.618Z,12.47
2018-12-19T07:46:04.758Z,10.20
2018-12-19T07:48:33.538Z,13.10
2018-12-19T07:51:01.691Z,12.50
2018-12-19T07:53:29.904Z,12.50
2018-12-19T07:55:59.071Z,17.10
2018-12-19T07:58:27.226Z,11.10
2018-12-19T08:00:55.351Z,14.13
2018-12-19T08:03:23.819Z,9.33
2018-12-19T08:05:51.951Z,12.83
2018-12-19T08:08:20.113Z,10.60
2018-12-19T08:10:52.172Z,14.00
2018-12-19T08:13:18.409Z,9.93
2018-12-19T08:15:46.714Z,10.63
2018-12-19T08:18:14.848Z,10.60
2018-12-19T08:20:42.959Z,12.80
2018-12-19T08:23:11.118Z,9.80
2018-12-19T08:25:39.226Z,10.80
2018-12-19T08:28:07.445Z,11.07
2018-12-19T08:30:35.586Z,13.90
2018-12-19T08:33:03.725Z,13.60
2018-12-19T08:35:31.865Z,20.60
2018-12-19T08:38:00.015Z,13.72
2018-12-19T08:40:28.145Z,17.95
2018-12-19T08:42:56.537Z,17.48
2018-12-19T08:45:26.053Z,18.50
2018-12-19T08:47:54.186Z,24.03
2018-12-19T08:50:22.342Z,21.07
2018-12-19T08:52:50.485Z,25.63
2018-12-19T08:55:18.594Z,21.20
2018-12-19T08:57:46.744Z,19.07
2018-12-19T09:00:14.985Z,25.45
2018-12-19T09:02:43.170Z,21.27
2018-12-19T09:05:11.295Z,22.73
2018-12-19T09:07:39.425Z,34.77
2018-12-19T09:10:08.205Z,28.90
2018-12-19T09:12:36.418Z,24.17
2018-12-19T09:15:05.408Z,17.52
2018-12-19T09:17:33.618Z,23.27
2018-12-19T09:20:02.311Z,25.25
2018-12-19T09:22:30.611Z,28.07
2018-12-19T09:24:58.846Z,22.03
2018-12-19T09:27:27.266Z,34.90
2018-12-19T09:29:55.479Z,24.03
2018-12-19T09:32:23.711Z,24.10
2018-12-19T09:34:51.925Z,22.47
2018-12-19T09:37:20.047Z,20.70
2018-12-19T09:39:48.157Z,22.23
2018-12-19T09:42:16.409Z,26.27
2018-12-19T09:44:44.533Z,35.47
2018-12-19T09:47:12.699Z,22.07
2018-12-19T09:49:40.819Z,39.57
2018-12-19T09:52:09.048Z,23.60
2018-12-19T09:54:37.284Z,24.57
2018-12-19T09:57:05.450Z,19.13
2018-12-19T09:59:33.598Z,22.93
2018-12-19T10:02:01.856Z,20.83
2018-12-19T10:04:30.085Z,20.83
2018-12-19T10:06:59.062Z,26.70
2018-12-19T10:09:27.250Z,23.90
2018-12-19T10:11:55.397Z,30.87
2018-12-19T10:14:23.542Z,17.00
2018-12-19T10:16:51.677Z,15.57
2018-12-19T10:19:19.910Z,19.87
2018-12-19T10:21:48.534Z,18.50
2018-12-19T10:24:16.679Z,19.97
2018-12-19T10:26:44.823Z,16.07
2018-12-19T10:29:13.044Z,15.13
2018-12-19T10:31:41.270Z,13.40
2018-12-19T10:34:09.429Z,16.77
2018-12-19T10:36:37.701Z,18.07
2018-12-19T10:39:12.686Z,13.77
2018-12-19T10:41:40.882Z,17.17
2018-12-19T10:44:09.346Z,20.83
2018-12-19T10:46:38.369Z,16.93
2018-12-19T10:49:06.650Z,17.82
2018-12-19T10:51:34.824Z,16.67
2018-12-19T10:54:02.961Z,20.10
2018-12-19T10:56:31.070Z,26.73
2018-12-19T10:58:59.250Z,20.97
2018-12-19T11:01:27.461Z,13.30
2018-12-19T11:03:55.609Z,13.17
2018-12-19T11:06:23.904Z,16.80
2018-12-19T11:08:52.152Z,13.77
2018-12-19T11:11:20.300Z,14.13
2018-12-19T11:13:48.421Z,17.20
2018-12-19T11:16:16.561Z,19.60
2018-12-19T11:18:44.709Z,15.90
2018-12-19T11:21:12.942Z,15.83
2018-12-19T11:23:41.344Z,17.07
2018-12-19T11:26:09.658Z,16.17
2018-12-19T11:28:37.829Z,15.63
2018-12-19T11:31:06.046Z,20.87
2018-12-19T11:33:34.285Z,21.33
2018-12-19T11:36:03.088Z,20.65
2018-12-19T11:38:31.232Z,23.83
2018-12-19T11:40:59.345Z,26.13
2018-12-19T11:43:27.602Z,21.77
2018-12-19T11:45:55.777Z,24.37
2018-12-19T11:48:23.899Z,15.30
2018-12-19T11:50:52.019Z,17.83
2018-12-19T11:53:20.189Z,18.40
2018-12-19T11:55:48.426Z,25.13
2018-12-19T11:58:16.558Z,18.37
2018-12-19T12:00:44.922Z,21.23
2018-12-19T12:03:13.155Z,28.65
2018-12-19T12:05:41.277Z,31.40
2018-12-19T12:08:09.451Z,18.97
2018-12-19T12:10:37.627Z,22.77
2018-12-19T12:13:05.889Z,27.93
2018-12-19T12:15:34.898Z,21.02
2018-12-19T12:18:03.048Z,21.23
2018-12-19T12:20:31.248Z,23.53
2018-12-19T12:22:59.478Z,17.83
2018-12-19T12:25:27.693Z,23.87
2018-12-19T12:27:55.841Z,25.27
2018-12-19T12:30:23.962Z,27.10
2018-12-19T12:32:52.097Z,27.10
2018-12-19T12:35:20.289Z,23.17
2018-12-19T12:37:48.466Z,21.63
2018-12-19T12:40:16.753Z,23.00
2018-12-19T12:42:44.911Z,21.15
2018-12-19T12:45:13.041Z,18.93
2018-12-19T12:47:41.180Z,23.30
2018-12-19T12:50:09.386Z,29.70
2018-12-19T12:52:37.513Z,19.00
2018-12-19T12:55:06.195Z,25.68
2018-12-19T12:57:34.309Z,22.73
2018-12-19T13:00:02.451Z,28.57
2018-12-19T13:02:30.634Z,30.90
2018-12-19T13:04:58.769Z,33.10
2018-12-19T13:07:26.881Z,34.43
2018-12-19T13:09:55.101Z,28.63
2018-12-19T13:12:23.318Z,22.30
2018-12-19T13:14:51.446Z,26.73
2018-12-19T13:17:19.799Z,27.10
2018-12-19T13:19:47.924Z,32.33
2018-12-19T13:22:16.085Z,27.20
2018-12-19T13:24:44.223Z,26.67
2018-12-19T13:27:12.474Z,24.50
2018-12-19T13:29:40.965Z,28.17
2018-12-19T13:32:10.225Z,25.20
2018-12-19T13:34:38.411Z,29.27
2018-12-19T13:37:06.633Z,28.70
2018-12-19T13:39:34.837Z,30.33
2018-12-19T13:42:05.809Z,23.47
2018-12-19T13:44:33.097Z,22.67
2018-12-19T13:47:01.476Z,31.00
2018-12-19T13:49:29.643Z,20.17
2018-12-19T13:51:57.770Z,21.93
2018-12-19T13:54:26.160Z,28.20
2018-12-19T13:56:54.297Z,31.77
2018-12-19T13:59:22.441Z,33.83
2018-12-19T14:01:50.601Z,27.35
2018-12-19T14:04:18.822Z,27.13
2018-12-19T14:06:47.028Z,27.73
2018-12-19T14:09:15.155Z,33.47
2018-12-19T14:11:43.325Z,33.50
2018-12-19T14:14:11.475Z,28.20
2018-12-19T14:16:39.745Z,42.10
2018-12-19T14:19:07.937Z,39.77
2018-12-19T14:21:36.463Z,39.00
2018-12-19T14:24:04.781Z,35.70
2018-12-19T14:26:32.905Z,30.20
2018-12-19T14:29:01.057Z,37.90
2018-12-19T14:31:29.206Z,58.57
2018-12-19T14:33:57.362Z,40.07
2018-12-19T14:36:25.509Z,43.28
2018-12-19T14:38:53.638Z,34.60
2018-12-19T14:41:21.837Z,30.33
2018-12-19T14:43:49.981Z,34.33
2018-12-19T14:46:18.117Z,39.27
2018-12-19T14:48:46.249Z,31.97
2018-12-19T14:51:14.486Z,36.30
2018-12-19T14:53:42.755Z,34.83
2018-12-19T14:56:10.920Z,36.63
2018-12-19T14:58:39.058Z,30.33
2018-12-19T15:01:07.358Z,36.73
2018-12-19T15:03:35.581Z,44.17
2018-12-19T15:06:03.717Z,37.43
2018-12-19T15:08:32.011Z,34.10
2018-12-19T15:11:00.284Z,32.73
2018-12-19T15:13:28.558Z,32.40
2018-12-19T15:16:02.291Z,34.63
2018-12-19T15:18:30.725Z,33.90
2018-12-19T15:20:58.958Z,32.57
2018-12-19T15:23:27.112Z,33.70
2018-12-19T15:25:55.237Z,36.33
2018-12-19T15:28:23.409Z,31.67
2018-12-19T15:30:51.563Z,36.80
2018-12-19T15:33:19.746Z,23.90
2018-12-19T15:35:48.143Z,26.10
2018-12-19T15:38:16.516Z,27.87
2018-12-19T15:40:44.934Z,23.77
2018-12-19T15:43:13.136Z,34.37
2018-12-19T15:45:41.464Z,28.10
2018-12-19T15:48:09.585Z,23.97
2018-12-19T15:50:37.765Z,29.00
2018-12-19T15:53:05.907Z,30.13
2018-12-19T15:55:34.051Z,37.17
2018-12-19T15:58:02.166Z,29.20
2018-12-19T16:00:30.352Z,33.63
2018-12-19T16:02:58.581Z,34.60
2018-12-19T16:05:26.730Z,32.10
2018-12-19T16:07:54.943Z,34.80
2018-12-19T16:10:23.075Z,32.80
2018-12-19T16:12:51.250Z,37.70
2018-12-19T16:15:19.578Z,36.43
2018-12-19T16:17:47.747Z,25.20
2018-12-19T16:20:15.993Z,30.30
2018-12-19T16:22:44.236Z,30.17
2018-12-19T16:25:12.740Z,31.95
2018-12-19T16:27:41.687Z,27.35
2018-12-19T16:30:10.250Z,30.63
2018-12-19T16:32:38.623Z,27.03
2018-12-19T16:35:07.420Z,30.60
2018-12-19T16:37:38.804Z,28.73
2018-12-19T16:40:07.129Z,27.15
2018-12-19T16:42:35.277Z,28.30
2018-12-19T16:45:03.642Z,34.47
2018-12-19T16:47:31.958Z,25.80
2018-12-19T16:50:00.107Z,22.40
2018-12-19T16:52:28.246Z,28.07
2018-12-19T16:54:56.397Z,32.53
2018-12-19T16:57:24.533Z,23.93
2018-12-19T16:59:52.747Z,30.17
2018-12-19T17:02:20.918Z,20.40
2018-12-19T17:04:49.035Z,20.53
2018-12-19T17:07:17.178Z,27.70
2018-12-19T17:09:45.310Z,24.77
2018-12-19T17:12:14.220Z,23.55
2018-12-19T17:14:42.658Z,22.63
2018-12-19T17:17:10.826Z,32.60
2018-12-19T17:19:39.036Z,22.60
2018-12-19T17:22:07.163Z,23.17
2018-12-19T17:24:40.720Z,23.40
2018-12-19T17:27:08.897Z,21.37
2018-12-19T17:29:37.041Z,31.10
2018-12-19T17:32:05.477Z,28.47
2018-12-19T17:34:33.611Z,29.77
2018-12-19T17:37:01.769Z,26.63
2018-12-19T17:39:29.978Z,27.13
2018-12-19T17:41:58.169Z,28.93
2018-12-19T17:44:26.520Z,24.50
2018-12-19T17:46:54.758Z,22.30
2018-12-19T17:49:22.893Z,30.70
2018-12-19T17:51:51.066Z,30.37
2018-12-19T17:54:19.865Z,36.23
2018-12-19T17:56:48.010Z,37.83
2018-12-19T17:59:16.233Z,53.83
2018-12-19T18:01:44.461Z,45.95
2018-12-19T18:04:12.748Z,45.33
2018-12-19T18:06:40.975Z,40.47
2018-12-19T18:09:09.110Z,31.70
2018-12-19T18:11:37.263Z,31.77
2018-12-19T18:14:05.782Z,40.13
2018-12-19T18:16:34.001Z,39.70
2018-12-19T18:19:02.225Z,25.83
2018-12-19T18:21:30.417Z,31.90
2018-12-19T18:23:58.549Z,29.93
2018-12-19T18:26:26.702Z,30.73
2018-12-19T18:28:54.838Z,33.53
2018-12-19T18:31:23.116Z,32.17
2018-12-19T18:33:51.260Z,28.70
2018-12-19T18:36:19.398Z,31.00
2018-12-19T18:38:47.559Z,30.80
2018-12-19T18:41:15.706Z,34.33
2018-12-19T18:43:44.473Z,30.60
2018-12-19T18:46:12.642Z,27.40
2018-12-19T18:48:40.837Z,32.33
2018-12-19T18:51:09.014Z,24.32
2018-12-19T18:53:37.135Z,27.67
2018-12-19T18:56:05.453Z,24.33
2018-12-19T18:58:33.577Z,19.70
2018-12-19T19:01:01.809Z,26.30
2018-12-19T19:03:30.133Z,19.83
2018-12-19T19:05:58.458Z,28.73
2018-12-19T19:08:26.735Z,27.44
2018-12-19T19:10:54.939Z,25.70
2018-12-19T19:13:23.090Z,26.82
2018-12-19T19:15:51.214Z,24.30
2018-12-19T19:18:19.531Z,22.53
2018-12-19T19:20:48.069Z,25.12
2018-12-19T19:23:16.294Z,33.83
2018-12-19T19:25:44.430Z,29.90
2018-12-19T19:28:19.038Z,36.77
2018-12-19T19:30:47.191Z,37.03
2018-12-19T19:33:15.349Z,35.48
2018-12-19T19:35:43.577Z,28.02
2018-12-19T19:38:11.705Z,26.17
2018-12-19T19:40:40.014Z,26.10
2018-12-19T19:43:08.171Z,25.33
2018-12-19T19:45:36.340Z,24.97
2018-12-19T19:48:04.573Z,21.83
2018-12-19T19:50:32.713Z,21.20
2018-12-19T19:53:00.847Z,19.07
2018-12-19T19:55:28.978Z,18.43
2018-12-19T19:57:57.133Z,22.33
2018-12-19T20:00:31.391Z,24.20
2018-12-19T20:02:59.729Z,21.62
2018-12-19T20:05:27.903Z,18.63
2018-12-19T20:07:56.061Z,25.97
2018-12-19T20:10:24.209Z,24.00
2018-12-19T20:12:52.430Z,29.23
2018-12-19T20:15:20.602Z,22.93
2018-12-19T20:17:48.746Z,18.77
2018-12-19T20:20:16.908Z,14.40
2018-12-19T20:22:45.028Z,16.20
2018-12-19T20:25:13.276Z,10.80
2018-12-19T20:27:41.430Z,11.00
2018-12-19T20:30:11.565Z,7.10
2018-12-19T20:32:39.690Z,6.73
2018-12-19T20:35:08.023Z,7.93
2018-12-19T20:37:36.163Z,7.57
2018-12-19T20:40:04.709Z,4.20
2018-12-19T20:42:32.848Z,12.20
2018-12-19T20:45:01.035Z,8.07
2018-12-19T20:47:29.455Z,4.83
2018-12-19T20:49:57.709Z,5.33
2018-12-19T20:52:25.985Z,3.93
2018-12-19T20:54:54.137Z,2.63
2018-12-19T20:57:23.006Z,10.63
2018-12-19T20:59:51.415Z,5.30
2018-12-19T21:02:19.638Z,8.80
2018-12-19T21:04:47.860Z,5.60
2018-12-19T21:07:16.058Z,14.40
2018-12-19T21:09:44.190Z,10.20
2018-12-19T21:12:12.324Z,7.65
2018-12-19T21:14:40.455Z,6.78
2018-12-19T21:18:16.746Z,11.22
2018-12-19T21:20:45.056Z,5.47
2018-12-19T21:23:13.317Z,4.37
2018-12-19T21:25:41.587Z,12.00
2018-12-19T21:28:09.758Z,6.83
2018-12-19T21:30:37.891Z,10.90
2018-12-19T21:33:06.183Z,7.22
2018-12-19T21:35:34.305Z,10.40
2018-12-19T21:38:02.618Z,9.00
2018-12-19T21:40:30.810Z,8.10
2018-12-19T21:42:59.023Z,8.83
2018-12-19T21:45:27.237Z,6.97
2018-12-19T21:47:55.398Z,7.70
2018-12-19T21:50:23.654Z,11.50
2018-12-19T21:52:51.842Z,10.75
2018-12-19T21:55:19.995Z,7.33
2018-12-19T21:57:48.264Z,7.40
2018-12-19T22:02:44.824Z,10.48
2018-12-19T22:05:12.955Z,6.10
2018-12-19T22:07:41.285Z,11.27
2018-12-19T22:10:09.511Z,12.00
2018-12-19T22:12:37.937Z,12.40
2018-12-19T22:15:06.548Z,4.90
2018-12-19T22:17:40.132Z,13.07
2018-12-19T22:20:08.511Z,7.23
2018-12-19T22:22:36.785Z,9.63
2018-12-19T22:25:05.420Z,6.27
2018-12-19T22:27:33.631Z,4.87
2018-12-19T22:30:01.855Z,4.93
2018-12-19T22:32:30.309Z,5.63
2018-12-19T22:34:58.621Z,5.83
2018-12-19T22:37:26.887Z,5.57
2018-12-19T22:39:55.005Z,4.40
2018-12-19T22:42:23.185Z,3.47
2018-12-19T22:44:51.316Z,3.90
2018-12-19T22:47:19.537Z,4.33
2018-12-19T22:49:47.654Z,4.87
2018-12-19T22:52:15.782Z,14.83
2018-12-19T22:54:43.919Z,12.20
2018-12-19T22:57:12.087Z,7.77
2018-12-19T22:59:40.213Z,13.13
2018-12-19T23:02:13.825Z,5.90
2018-12-19T23:04:41.968Z,4.93
2018-12-19T23:07:10.263Z,7.57
2018-12-19T23:09:38.572Z,4.30
2018-12-19T23:12:06.829Z,5.03
2018-12-19T23:14:35.075Z,5.37
2018-12-19T23:17:07.483Z,8.23
2018-12-19T23:19:35.715Z,5.30
2018-12-19T23:22:03.926Z,4.00
2018-12-19T23:24:32.138Z,6.10
2018-12-19T23:27:00.354Z,6.77
2018-12-19T23:29:29.073Z,4.85
2018-12-19T23:31:57.338Z,4.27
2018-12-19T23:34:25.567Z,4.17
2018-12-19T23:36:53.722Z,7.77
2018-12-19T23:39:22.043Z,6.57
2018-12-19T23:41:50.193Z,4.50
2018-12-19T23:44:22.714Z,4.30
2018-12-19T23:46:51.094Z,4.03
2018-12-19T23:49:19.404Z,5.27
2018-12-19T23:51:47.553Z,3.43
2018-12-19T23:54:15.700Z,3.43
2018-12-19T23:56:43.915Z,3.23
2018-12-19T23:59:12.093Z,2.63
